Time;durP1;ratioP1;P1;durP2;ratioP2;P2;SDS_P1;SDS_P2;PMS_P1;PMS_P2;Temp;Humidity;BMP_temperature;BMP_pressure;BME280_temperature;BME280_humidity;BME280_pressure;Samples;Min_cycle;Max_cycle;Signal;HPM_P1;HPM_P2
2023/05/21 00:01:05;;;;;;;5.70;3.97;;;15.60;99.90;;;;;;5066100;28;20230;-73
2023/05/21 00:03:34;;;;;;;6.53;4.07;;;15.50;99.90;;;;;;5062741;28;20215;-74
2023/05/21 00:06:02;;;;;;;6.03;4.60;;;15.50;99.90;;;;;;5071465;28;20234;-73
2023/05/21 00:08:29;;;;;;;6.80;4.20;;;15.50;99.90;;;;;;5063659;28;20239;-74
2023/05/21 00:10:56;;;;;;;6.40;4.53;;;15.50;99.90;;;;;;5066016;28;20668;-73
2023/05/21 00:13:23;;;;;;;5.27;3.97;;;15.50;99.90;;;;;;5068249;28;20199;-73
2023/05/21 00:15:50;;;;;;;5.87;4.70;;;15.50;99.90;;;;;;5069268;28;20274;-73
2023/05/21 00:18:17;;;;;;;5.70;4.40;;;15.50;99.90;;;;;;5069781;28;20673;-73
2023/05/21 00:20:44;;;;;;;7.60;4.90;;;15.50;99.90;;;;;;5065808;28;20208;-73
2023/05/21 00:23:11;;;;;;;6.37;4.40;;;15.40;99.90;;;;;;5065956;28;20648;-73
2023/05/21 00:25:37;;;;;;;6.73;4.80;;;15.40;99.90;;;;;;5065465;28;20273;-73
2023/05/21 00:28:04;;;;;;;6.27;4.87;;;15.30;99.90;;;;;;5070006;28;20212;-74
2023/05/21 00:30:31;;;;;;;5.60;4.40;;;15.30;99.90;;;;;;5064018;28;20228;-73
2023/05/21 00:33:01;;;;;;;5.53;4.47;;;15.30;99.90;;;;;;5069629;28;20216;-73
2023/05/21 00:35:28;;;;;;;9.87;5.23;;;15.30;99.90;;;;;;5077109;28;20274;-73
2023/05/21 00:37:55;;;;;;;7.93;4.40;;;15.40;99.90;;;;;;5068251;28;20656;-73
2023/05/21 00:40:22;;;;;;;6.27;4.70;;;15.30;99.90;;;;;;5063770;28;20214;-73
2023/05/21 00:42:48;;;;;;;5.33;4.40;;;15.30;99.90;;;;;;5078860;28;20637;-73
2023/05/21 00:45:15;;;;;;;9.10;5.03;;;15.30;99.90;;;;;;5067077;28;20255;-73
2023/05/21 00:47:43;;;;;;;5.77;4.80;;;15.30;99.90;;;;;;5068004;28;20207;-74
2023/05/21 00:50:11;;;;;;;7.67;5.07;;;15.30;99.90;;;;;;5072078;28;20204;-74
2023/05/21 00:52:40;;;;;;;6.77;5.23;;;15.30;99.90;;;;;;5069252;28;20257;-74
2023/05/21 00:55:08;;;;;;;6.10;4.80;;;15.30;99.90;;;;;;5066200;28;20196;-74
2023/05/21 00:57:36;;;;;;;6.90;5.63;;;15.30;99.90;;;;;;5068505;28;20299;-74
2023/05/21 01:00:07;;;;;;;6.00;4.80;;;15.30;99.90;;;;;;5068423;28;20577;-74
2023/05/21 01:02:35;;;;;;;7.37;5.07;;;15.30;99.90;;;;;;5069265;28;20661;-74
2023/05/21 01:05:04;;;;;;;10.23;5.63;;;15.30;99.90;;;;;;5071984;28;20205;-74
2023/05/21 01:07:33;;;;;;;8.07;5.27;;;15.30;99.90;;;;;;5085096;28;20221;-73
2023/05/21 01:10:06;;;;;;;11.07;5.67;;;15.30;99.90;;;;;;5065326;28;20296;-73
2023/05/21 01:12:34;;;;;;;7.80;4.90;;;15.30;99.90;;;;;;5065100;28;20211;-73
2023/05/21 01:15:02;;;;;;;8.50;5.50;;;15.30;99.90;;;;;;5066970;28;20229;-74
2023/05/21 01:17:30;;;;;;;6.37;5.47;;;15.20;99.90;;;;;;5068966;28;20212;-74
2023/05/21 01:19:58;;;;;;;6.43;4.90;;;15.20;99.90;;;;;;5067174;28;20204;-74
2023/05/21 01:22:27;;;;;;;6.80;5.20;;;15.20;99.90;;;;;;5080918;28;20247;-73
2023/05/21 01:24:54;;;;;;;7.33;5.03;;;15.20;99.90;;;;;;5068751;28;20277;-73
2023/05/21 01:27:21;;;;;;;7.40;5.70;;;15.20;99.90;;;;;;5063635;28;20206;-73
2023/05/21 01:29:48;;;;;;;9.23;5.57;;;15.20;99.90;;;;;;5068179;28;20273;-74
2023/05/21 01:32:48;;;;;;;7.73;5.73;;;15.10;99.90;;;;;;5064110;28;20281;-74
2023/05/21 01:35:26;;;;;;;6.73;4.90;;;15.10;99.90;;;;;;5060737;28;20311;-74
2023/05/21 01:38:06;;;;;;;7.50;5.27;;;15.10;99.90;;;;;;5064235;28;20278;-74
2023/05/21 01:40:59;;;;;;;5.87;5.17;;;15.10;99.90;;;;;;5062399;28;20562;-74
2023/05/21 01:43:28;;;;;;;7.73;5.20;;;15.00;99.90;;;;;;5061925;28;20263;-74
2023/05/21 01:45:56;;;;;;;6.43;4.83;;;15.00;99.90;;;;;;5066043;28;20228;-74
2023/05/21 01:48:26;;;;;;;7.73;5.50;;;15.00;99.90;;;;;;5068177;28;20196;-74
2023/05/21 01:50:56;;;;;;;6.73;5.20;;;15.00;99.90;;;;;;5079846;28;20283;-73
2023/05/21 01:53:23;;;;;;;8.83;5.33;;;15.10;99.90;;;;;;5080301;28;20212;-74
2023/05/21 01:55:51;;;;;;;6.83;5.40;;;15.10;99.90;;;;;;5067854;28;20209;-75
2023/05/21 01:58:18;;;;;;;6.40;5.03;;;15.00;99.90;;;;;;5067571;28;20933;-73
2023/05/21 02:00:45;;;;;;;8.03;5.37;;;15.10;99.90;;;;;;5064179;28;20209;-74
2023/05/21 02:03:16;;;;;;;7.50;5.73;;;15.00;99.90;;;;;;5067101;28;20223;-73
2023/05/21 02:05:43;;;;;;;9.07;5.93;;;15.00;99.90;;;;;;5070100;28;20205;-73
2023/05/21 02:08:11;;;;;;;9.93;5.33;;;14.90;99.90;;;;;;5062258;28;20197;-74
2023/05/21 02:10:38;;;;;;;7.47;5.30;;;15.10;99.90;;;;;;5068609;28;20216;-72
2023/05/21 02:13:05;;;;;;;7.33;5.17;;;15.00;99.90;;;;;;5067833;28;20746;-76
2023/05/21 02:15:35;;;;;;;7.13;5.33;;;15.10;99.90;;;;;;5068739;28;20224;-75
2023/05/21 02:18:03;;;;;;;6.30;5.03;;;15.00;99.90;;;;;;5065649;28;20302;-73
2023/05/21 02:20:30;;;;;;;7.87;5.83;;;14.90;99.90;;;;;;5072227;28;20206;-73
2023/05/21 02:22:57;;;;;;;7.63;5.73;;;14.90;99.90;;;;;;5068055;28;20233;-73
2023/05/21 02:25:23;;;;;;;8.47;5.53;;;14.90;99.90;;;;;;5072077;28;20214;-73
2023/05/21 02:27:55;;;;;;;8.13;6.10;;;14.90;99.90;;;;;;5071032;28;20205;-75
2023/05/21 02:30:22;;;;;;;6.63;5.23;;;14.90;99.90;;;;;;5072111;28;20221;-74
2023/05/21 02:32:49;;;;;;;9.13;5.87;;;14.90;99.90;;;;;;5063078;28;20216;-73
2023/05/21 02:35:16;;;;;;;9.17;6.00;;;14.90;99.90;;;;;;5072124;28;20627;-74
2023/05/21 02:37:43;;;;;;;7.83;5.80;;;14.90;99.90;;;;;;5065829;28;20208;-75
2023/05/21 02:40:11;;;;;;;8.53;5.60;;;14.90;99.90;;;;;;5069943;28;20209;-73
2023/05/21 02:42:38;;;;;;;11.07;5.70;;;14.90;99.90;;;;;;5067408;28;20230;-73
2023/05/21 02:45:10;;;;;;;7.47;5.63;;;14.90;99.90;;;;;;5067638;28;20646;-75
2023/05/21 02:47:37;;;;;;;9.10;5.17;;;14.90;99.90;;;;;;5072118;28;20200;-73
2023/05/21 02:50:06;;;;;;;7.80;5.80;;;14.90;99.90;;;;;;5065159;28;20204;-74
2023/05/21 02:52:33;;;;;;;8.63;5.87;;;14.90;99.90;;;;;;5071260;28;20282;-73
2023/05/21 02:55:00;;;;;;;9.67;7.23;;;14.90;99.90;;;;;;5064911;28;20235;-73
2023/05/21 02:57:26;;;;;;;7.70;5.87;;;14.90;99.90;;;;;;5070243;28;20281;-73
2023/05/21 02:59:53;;;;;;;9.40;5.63;;;14.90;99.90;;;;;;5063482;28;20219;-75
2023/05/21 03:02:20;;;;;;;7.63;5.67;;;14.80;99.90;;;;;;5072038;28;20232;-73
2023/05/21 03:04:47;;;;;;;7.87;5.73;;;14.90;99.90;;;;;;5068240;28;20292;-73
2023/05/21 03:07:17;;;;;;;7.60;5.87;;;14.90;99.90;;;;;;5067977;28;20213;-75
2023/05/21 03:09:45;;;;;;;7.47;5.63;;;14.90;99.90;;;;;;5067213;28;20208;-75
2023/05/21 03:12:12;;;;;;;7.97;5.70;;;14.90;99.90;;;;;;5071652;28;20215;-73
2023/05/21 03:14:39;;;;;;;6.57;5.27;;;14.90;99.90;;;;;;5062299;28;20221;-73
2023/05/21 03:17:06;;;;;;;6.83;5.27;;;14.90;99.90;;;;;;5071225;28;20612;-74
2023/05/21 03:19:34;;;;;;;8.37;5.70;;;14.90;99.90;;;;;;5071419;28;20250;-74
2023/05/21 03:22:02;;;;;;;7.53;5.63;;;14.90;99.90;;;;;;5067107;28;20610;-74
2023/05/21 03:24:29;;;;;;;7.47;5.77;;;14.90;99.90;;;;;;5063632;28;20213;-74
2023/05/21 03:26:56;;;;;;;6.77;5.93;;;14.90;99.90;;;;;;5068747;28;20223;-73
2023/05/21 03:29:23;;;;;;;7.67;5.57;;;14.90;99.90;;;;;;5067955;28;20224;-74
2023/05/21 03:31:52;;;;;;;8.30;5.77;;;14.90;99.90;;;;;;5061474;28;20377;-75
2023/05/21 03:34:19;;;;;;;7.87;5.70;;;14.90;99.90;;;;;;5068757;28;20207;-73
2023/05/21 03:36:46;;;;;;;8.67;6.03;;;14.90;99.90;;;;;;5067063;28;20214;-75
2023/05/21 03:39:13;;;;;;;7.87;5.40;;;14.80;99.90;;;;;;5066396;28;20216;-74
2023/05/21 03:41:40;;;;;;;7.30;5.87;;;14.80;99.90;;;;;;5071204;28;20221;-74
2023/05/21 03:44:07;;;;;;;7.83;5.57;;;14.80;99.90;;;;;;5066545;28;20244;-75
2023/05/21 03:46:34;;;;;;;8.17;5.90;;;14.80;99.90;;;;;;5070452;28;20200;-73
2023/05/21 03:49:01;;;;;;;7.70;5.80;;;14.80;99.90;;;;;;5066375;28;20248;-73
2023/05/21 03:51:31;;;;;;;7.77;5.80;;;14.70;99.90;;;;;;5063571;28;20214;-74
2023/05/21 03:53:58;;;;;;;8.07;6.03;;;14.70;99.90;;;;;;5061538;28;20209;-74
2023/05/21 03:56:25;;;;;;;9.37;5.40;;;14.80;99.90;;;;;;5068993;28;20525;-73
2023/05/21 03:58:52;;;;;;;9.23;6.13;;;14.80;99.90;;;;;;5068196;28;20291;-73
2023/05/21 04:01:19;;;;;;;10.10;6.00;;;14.80;99.90;;;;;;5070509;28;20196;-75
2023/05/21 04:03:46;;;;;;;11.07;6.50;;;14.80;99.90;;;;;;5066077;28;20224;-76
2023/05/21 04:06:13;;;;;;;7.17;5.53;;;14.80;99.90;;;;;;5067315;28;20208;-73
2023/05/21 04:08:39;;;;;;;7.37;5.53;;;14.80;99.90;;;;;;5069740;28;20210;-74
2023/05/21 04:11:06;;;;;;;10.40;6.20;;;14.80;99.90;;;;;;5066261;28;20204;-74
2023/05/21 04:13:33;;;;;;;10.63;6.50;;;14.80;99.90;;;;;;5068420;28;20250;-74
2023/05/21 04:16:00;;;;;;;11.70;6.43;;;14.80;99.90;;;;;;5070020;28;20274;-74
2023/05/21 04:18:27;;;;;;;11.43;6.30;;;14.80;99.90;;;;;;5065991;28;20202;-74
2023/05/21 04:20:53;;;;;;;8.87;6.07;;;14.80;99.90;;;;;;5066425;28;20213;-74
2023/05/21 04:23:22;;;;;;;9.90;6.47;;;14.80;99.90;;;;;;5065792;28;20232;-75
2023/05/21 04:25:49;;;;;;;9.07;5.57;;;14.70;99.90;;;;;;5068751;28;20206;-73
2023/05/21 04:28:18;;;;;;;7.20;5.63;;;14.80;99.90;;;;;;5069139;28;20234;-74
2023/05/21 04:30:49;;;;;;;7.70;5.73;;;14.80;99.90;;;;;;5060657;28;20234;-74
2023/05/21 04:33:16;;;;;;;9.83;6.50;;;14.70;99.90;;;;;;5041459;28;20255;-75
2023/05/21 04:35:48;;;;;;;12.03;6.57;;;14.70;99.90;;;;;;5027935;28;20626;-73
2023/05/21 04:38:18;;;;;;;7.00;5.43;;;14.70;99.90;;;;;;5038309;28;20210;-75
2023/05/21 04:40:51;;;;;;;7.87;5.43;;;14.80;99.90;;;;;;5046688;28;20304;-74
2023/05/21 04:43:24;;;;;;;9.77;6.00;;;14.80;99.90;;;;;;5046589;28;20233;-74
2023/05/21 04:45:53;;;;;;;8.03;5.97;;;14.80;99.90;;;;;;5047160;28;20213;-74
2023/05/21 04:48:25;;;;;;;9.77;6.13;;;14.90;99.90;;;;;;5028865;28;20204;-75
2023/05/21 04:50:52;;;;;;;7.20;4.97;;;14.90;99.90;;;;;;5028572;28;20201;-76
2023/05/21 04:53:19;;;;;;;9.73;6.20;;;15.00;99.90;;;;;;5049232;28;20201;-75
2023/05/21 04:55:46;;;;;;;7.37;5.20;;;14.90;99.90;;;;;;5045526;28;20216;-75
2023/05/21 04:58:16;;;;;;;9.93;5.50;;;15.00;99.90;;;;;;5050122;28;20205;-74
2023/05/21 05:00:45;;;;;;;7.63;5.47;;;15.00;99.90;;;;;;5045779;28;20213;-75
2023/05/21 05:03:12;;;;;;;9.90;6.90;;;15.00;99.90;;;;;;5044323;28;20644;-74
2023/05/21 05:05:39;;;;;;;10.07;6.20;;;15.10;99.90;;;;;;5016963;28;20703;-74
2023/05/21 05:08:07;;;;;;;9.03;5.93;;;15.10;99.90;;;;;;5046542;28;20214;-74
2023/05/21 05:10:34;;;;;;;6.63;5.27;;;15.10;99.90;;;;;;5043321;28;20263;-75
2023/05/21 05:13:01;;;;;;;6.67;5.40;;;15.10;99.90;;;;;;5041750;28;20254;-74
2023/05/21 05:15:28;;;;;;;9.03;5.80;;;15.20;99.90;;;;;;5044933;28;20221;-75
2023/05/21 05:17:55;;;;;;;9.17;5.77;;;15.20;99.90;;;;;;5049594;28;20741;-74
2023/05/21 05:20:22;;;;;;;9.07;5.80;;;15.20;99.90;;;;;;5049057;28;20224;-76
2023/05/21 05:22:49;;;;;;;7.53;5.13;;;15.20;99.90;;;;;;5029049;28;20266;-75
2023/05/21 05:25:15;;;;;;;7.50;5.80;;;15.20;99.90;;;;;;5045763;28;20213;-75
2023/05/21 05:27:42;;;;;;;9.63;5.33;;;15.30;99.90;;;;;;5044112;28;20240;-75
2023/05/21 05:30:10;;;;;;;8.30;5.33;;;15.30;99.90;;;;;;5044205;28;20217;-76
2023/05/21 05:32:36;;;;;;;9.63;4.80;;;15.40;99.90;;;;;;5078327;28;20251;-75
2023/05/21 05:35:07;;;;;;;8.03;5.53;;;15.50;99.90;;;;;;5059959;28;20218;-76
2023/05/21 05:37:34;;;;;;;10.80;5.70;;;15.50;99.90;;;;;;5068626;28;20197;-75
2023/05/21 05:40:00;;;;;;;8.33;5.57;;;15.60;99.90;;;;;;5067825;28;20242;-75
2023/05/21 05:42:27;;;;;;;7.40;5.50;;;15.60;99.90;;;;;;5057075;28;20244;-75
2023/05/21 05:44:54;;;;;;;8.03;5.33;;;15.70;99.90;;;;;;5059504;28;20237;-75
2023/05/21 05:47:21;;;;;;;7.30;5.33;;;15.70;99.90;;;;;;5063138;28;20242;-76
2023/05/21 05:49:48;;;;;;;12.17;5.53;;;15.70;99.90;;;;;;5065186;28;20543;-74
2023/05/21 05:52:15;;;;;;;8.10;5.37;;;15.80;99.90;;;;;;5067310;28;20251;-75
2023/05/21 05:54:41;;;;;;;8.37;5.43;;;15.80;99.90;;;;;;5068331;28;20273;-75
2023/05/21 05:57:08;;;;;;;9.30;5.47;;;15.90;99.90;;;;;;5072939;28;20266;-74
2023/05/21 05:59:35;;;;;;;7.90;5.23;;;15.90;99.90;;;;;;5071153;28;20216;-76
2023/05/21 06:02:02;;;;;;;7.77;5.73;;;15.90;99.90;;;;;;5065137;28;20200;-75
2023/05/21 06:04:29;;;;;;;9.83;6.00;;;15.90;99.90;;;;;;5068775;28;20271;-75
2023/05/21 06:06:59;;;;;;;8.23;5.87;;;15.90;99.90;;;;;;5070919;28;20200;-76
2023/05/21 06:09:26;;;;;;;8.17;6.17;;;15.90;99.90;;;;;;5065329;28;20236;-75
2023/05/21 06:11:53;;;;;;;10.13;6.30;;;15.90;99.90;;;;;;5069746;28;20197;-74
2023/05/21 06:14:20;;;;;;;7.90;5.57;;;15.80;99.90;;;;;;5062851;28;20673;-75
2023/05/21 06:16:46;;;;;;;7.53;5.80;;;15.90;99.90;;;;;;5064937;28;20738;-74
2023/05/21 06:19:14;;;;;;;9.77;6.00;;;15.90;99.90;;;;;;5069145;28;20200;-74
2023/05/21 06:21:43;;;;;;;8.03;5.63;;;16.00;99.90;;;;;;5070161;28;20201;-75
2023/05/21 06:24:10;;;;;;;11.53;6.00;;;16.00;99.90;;;;;;5083581;28;20225;-75
2023/05/21 06:26:37;;;;;;;9.10;5.77;;;16.00;99.90;;;;;;5066713;28;20212;-75
2023/05/21 06:29:04;;;;;;;9.50;5.90;;;16.20;99.90;;;;;;5064155;28;20207;-75
2023/05/21 06:31:31;;;;;;;10.33;6.20;;;16.10;99.90;;;;;;5062761;28;20221;-76
2023/05/21 06:33:59;;;;;;;9.23;6.50;;;16.10;99.90;;;;;;5069684;28;20249;-75
2023/05/21 06:36:28;;;;;;;9.40;6.53;;;16.10;99.90;;;;;;5065807;28;20295;-74
2023/05/21 06:38:56;;;;;;;11.03;6.10;;;16.30;99.90;;;;;;5065090;28;20208;-77
2023/05/21 06:41:23;;;;;;;9.07;5.80;;;16.20;99.90;;;;;;5082543;28;20209;-75
2023/05/21 06:43:50;;;;;;;9.70;6.13;;;16.20;99.90;;;;;;5068257;28;20300;-75
2023/05/21 06:46:17;;;;;;;8.90;5.97;;;16.30;99.90;;;;;;5063114;28;20201;-76
2023/05/21 06:48:45;;;;;;;9.20;6.23;;;16.30;99.90;;;;;;5067733;28;20283;-74
2023/05/21 06:51:12;;;;;;;10.23;6.40;;;16.30;99.90;;;;;;5066435;28;20205;-74
2023/05/21 06:53:39;;;;;;;10.70;5.50;;;16.40;99.90;;;;;;5070344;28;20216;-74
2023/05/21 06:56:06;;;;;;;9.90;5.70;;;16.50;99.90;;;;;;5064933;28;20583;-76
2023/05/21 06:58:33;;;;;;;10.37;6.20;;;16.50;99.90;;;;;;5064510;28;20215;-76
2023/05/21 07:01:00;;;;;;;9.38;5.95;;;16.60;99.90;;;;;;5070716;28;20340;-74
2023/05/21 07:03:27;;;;;;;7.75;6.47;;;16.70;99.90;;;;;;5067393;28;20295;-74
2023/05/21 07:05:54;;;;;;;8.77;5.93;;;16.60;99.90;;;;;;5062808;28;20200;-74
2023/05/21 07:08:21;;;;;;;8.43;6.15;;;16.60;99.90;;;;;;5070235;28;20269;-74
2023/05/21 07:10:48;;;;;;;11.03;5.87;;;16.60;99.90;;;;;;5065210;28;20204;-77
2023/05/21 07:13:15;;;;;;;9.55;5.95;;;16.70;99.90;;;;;;5068457;28;20653;-75
2023/05/21 07:15:42;;;;;;;10.35;5.97;;;16.70;99.90;;;;;;5065513;28;20208;-76
2023/05/21 07:18:09;;;;;;;10.02;5.78;;;16.70;99.90;;;;;;5066012;28;20201;-75
2023/05/21 07:20:35;;;;;;;10.70;5.97;;;16.80;99.90;;;;;;5063938;28;20197;-75
2023/05/21 07:23:02;;;;;;;10.07;6.28;;;16.80;99.90;;;;;;5064139;28;20208;-75
2023/05/21 07:25:29;;;;;;;7.95;5.82;;;16.90;99.90;;;;;;5081724;28;20652;-75
2023/05/21 07:27:56;;;;;;;10.27;5.88;;;17.00;99.90;;;;;;5062352;28;20200;-75
2023/05/21 07:30:23;;;;;;;9.90;5.30;;;17.00;99.90;;;;;;5075320;28;20225;-75
2023/05/21 07:32:50;;;;;;;10.40;5.40;;;17.00;99.90;;;;;;5033031;28;20748;-75
2023/05/21 07:35:17;;;;;;;9.13;6.25;;;17.10;99.90;;;;;;5051016;28;20607;-76
2023/05/21 07:37:45;;;;;;;10.77;6.15;;;17.20;99.90;;;;;;5048213;28;20199;-75
2023/05/21 07:40:12;;;;;;;8.90;5.78;;;17.20;99.90;;;;;;5028684;28;20219;-75
2023/05/21 07:42:39;;;;;;;9.07;5.50;;;17.30;99.90;;;;;;5051036;28;20259;-76
2023/05/21 07:45:07;;;;;;;8.50;5.72;;;17.40;99.90;;;;;;5041223;28;20270;-74
2023/05/21 07:47:33;;;;;;;9.02;5.80;;;17.50;99.90;;;;;;5031316;28;20209;-77
2023/05/21 07:50:00;;;;;;;8.75;5.38;;;17.60;99.90;;;;;;5025716;28;20293;-76
2023/05/21 07:52:27;;;;;;;10.70;5.22;;;17.90;99.90;;;;;;5050461;28;20220;-76
2023/05/21 07:54:54;;;;;;;9.18;4.95;;;18.20;99.90;;;;;;5049461;28;20212;-75
2023/05/21 07:57:22;;;;;;;10.45;5.18;;;18.50;99.90;;;;;;5029962;28;20205;-76
2023/05/21 07:59:48;;;;;;;6.80;4.90;;;18.80;99.90;;;;;;5050029;28;20228;-74
2023/05/21 08:02:15;;;;;;;7.40;4.90;;;19.10;99.90;;;;;;5046549;28;20554;-74
2023/05/21 08:04:43;;;;;;;6.05;4.80;;;19.40;99.90;;;;;;5049954;28;20314;-75
2023/05/21 08:07:10;;;;;;;8.38;5.18;;;19.60;99.90;;;;;;5051528;28;20317;-75
2023/05/21 08:09:36;;;;;;;7.00;5.35;;;19.80;99.90;;;;;;5045119;28;20319;-77
2023/05/21 08:12:04;;;;;;;8.15;5.00;;;19.90;99.90;;;;;;5043560;28;20263;-76
2023/05/21 08:14:30;;;;;;;6.78;4.80;;;20.20;99.90;;;;;;5041795;28;20263;-76
2023/05/21 08:16:57;;;;;;;6.70;5.00;;;20.40;99.90;;;;;;5042704;28;20201;-76
2023/05/21 08:19:24;;;;;;;7.65;5.28;;;20.50;99.90;;;;;;5044267;28;20263;-77
2023/05/21 08:21:51;;;;;;;7.68;5.00;;;20.40;99.90;;;;;;5046316;28;20624;-78
2023/05/21 08:24:18;;;;;;;7.53;4.78;;;20.40;99.90;;;;;;5046094;28;20228;-76
2023/05/21 08:26:46;;;;;;;6.60;4.72;;;20.50;99.90;;;;;;5049229;28;20704;-77
2023/05/21 08:29:13;;;;;;;10.98;4.72;;;20.70;99.90;;;;;;5048835;28;20225;-77
2023/05/21 08:31:40;;;;;;;8.02;4.93;;;20.90;99.90;;;;;;5049683;28;20804;-76
2023/05/21 08:34:07;;;;;;;9.88;5.50;;;21.10;99.90;;;;;;5045886;28;20227;-78
2023/05/21 08:36:33;;;;;;;8.98;5.13;;;21.30;99.90;;;;;;5045651;28;20212;-80
2023/05/21 08:39:00;;;;;;;9.45;5.32;;;21.30;99.90;;;;;;5032159;28;20208;-77
2023/05/21 08:41:30;;;;;;;8.93;5.60;;;21.30;99.90;;;;;;5045787;28;20245;-77
2023/05/21 08:44:00;;;;;;;6.75;4.82;;;21.70;99.90;;;;;;5041842;28;20240;-78
2023/05/21 08:46:33;;;;;;;8.38;4.70;;;21.90;99.90;;;;;;5045706;28;20204;-78
2023/05/21 08:49:01;;;;;;;6.95;5.30;;;22.20;99.90;;;;;;5030429;28;20209;-79
2023/05/21 08:51:29;;;;;;;8.20;5.20;;;22.20;99.90;;;;;;5049410;28;20208;-77
2023/05/21 08:53:58;;;;;;;7.00;5.03;;;22.50;99.90;;;;;;5045702;28;20240;-79
2023/05/21 08:56:26;;;;;;;7.65;5.15;;;22.60;99.90;;;;;;5049761;28;20266;-79
2023/05/21 08:58:52;;;;;;;7.95;5.57;;;22.60;99.90;;;;;;5032235;28;20210;-79
2023/05/21 09:01:21;;;;;;;10.35;5.03;;;22.80;99.90;;;;;;5049300;28;20217;-78
2023/05/21 09:03:54;;;;;;;8.23;5.15;;;23.20;99.90;;;;;;5045744;28;20303;-78
2023/05/21 09:06:34;;;;;;;7.55;5.20;;;23.50;99.90;;;;;;5048994;28;20282;-77
2023/05/21 09:09:17;;;;;;;8.07;5.30;;;23.60;99.90;;;;;;5045280;28;20201;-78
2023/05/21 09:11:46;;;;;;;8.93;5.82;;;23.90;99.90;;;;;;5049330;28;20213;-78
2023/05/21 09:14:14;;;;;;;8.00;5.43;;;23.90;99.90;;;;;;5042580;28;20226;-78
2023/05/21 09:16:41;;;;;;;8.30;5.90;;;24.00;99.90;;;;;;5049240;28;20205;-78
2023/05/21 09:19:08;;;;;;;7.93;5.50;;;23.80;99.90;;;;;;5043459;28;20300;-77
2023/05/21 09:21:35;;;;;;;9.93;5.75;;;23.70;99.90;;;;;;5048524;28;20814;-77
2023/05/21 09:24:31;;;;;;;6.97;5.28;;;23.70;99.90;;;;;;5046196;28;20346;-80
2023/05/21 09:27:18;;;;;;;9.75;5.90;;;23.60;99.90;;;;;;5027925;28;20674;-79
2023/05/21 09:29:45;;;;;;;8.02;5.72;;;23.50;99.90;;;;;;5052701;28;20229;-76
2023/05/21 09:32:12;;;;;;;10.43;5.90;;;23.50;99.90;;;;;;5050059;28;20232;-78
2023/05/21 09:34:40;;;;;;;8.52;5.93;;;23.40;99.90;;;;;;5047210;28;20213;-79
2023/05/21 09:37:10;;;;;;;9.45;6.03;;;23.40;99.90;;;;;;5050672;28;20208;-78
2023/05/21 09:39:52;;;;;;;7.55;5.65;;;23.40;99.90;;;;;;5037171;28;20216;-77
2023/05/21 09:42:20;;;;;;;9.98;6.20;;;23.30;99.90;;;;;;5032767;28;20198;-77
2023/05/21 09:44:47;;;;;;;10.05;5.47;;;23.20;99.90;;;;;;5032164;28;20634;-77
2023/05/21 09:47:21;;;;;;;7.60;5.15;;;23.40;99.90;;;;;;5034953;28;20650;-77
2023/05/21 09:49:51;;;;;;;8.55;5.80;;;23.50;99.90;;;;;;5031534;28;20224;-80
2023/05/21 09:52:25;;;;;;;6.78;5.78;;;23.60;99.90;;;;;;5035489;28;20217;-78
2023/05/21 09:54:52;;;;;;;8.80;6.00;;;23.30;99.90;;;;;;5045816;28;20271;-78
2023/05/21 09:57:31;;;;;;;9.18;5.93;;;23.20;99.90;;;;;;5035230;28;20212;-79
2023/05/21 10:00:02;;;;;;;7.65;5.47;;;23.30;99.90;;;;;;5035183;28;20218;-80
2023/05/21 10:02:31;;;;;;;7.82;5.65;;;23.30;99.90;;;;;;5052700;28;20634;-80
2023/05/21 10:04:59;;;;;;;9.40;5.60;;;23.30;99.90;;;;;;5049815;28;20225;-79
2023/05/21 10:07:26;;;;;;;9.20;5.90;;;23.30;99.90;;;;;;5052773;28;20202;-78
2023/05/21 10:09:55;;;;;;;8.18;5.55;;;23.30;99.90;;;;;;5048510;28;20206;-78
2023/05/21 10:12:26;;;;;;;10.60;6.22;;;23.40;99.90;;;;;;5052745;28;20205;-79
2023/05/21 10:15:07;;;;;;;8.15;5.60;;;23.40;99.90;;;;;;5050398;28;20315;-79
2023/05/21 10:17:35;;;;;;;8.90;6.10;;;23.40;99.90;;;;;;5050442;28;20243;-80
2023/05/21 10:20:03;;;;;;;9.07;6.65;;;23.40;99.90;;;;;;5052455;28;20232;-78
2023/05/21 10:22:31;;;;;;;9.52;6.18;;;23.20;99.90;;;;;;5048814;28;20228;-77
2023/05/21 10:24:59;;;;;;;10.60;5.78;;;23.20;99.90;;;;;;5048501;28;20256;-78
2023/05/21 10:27:29;;;;;;;9.65;5.70;;;23.20;99.90;;;;;;5048974;28;20205;-78
2023/05/21 10:29:58;;;;;;;8.32;5.78;;;23.30;99.90;;;;;;5033603;28;20308;-78
2023/05/21 10:32:26;;;;;;;11.45;6.47;;;23.30;99.90;;;;;;5051778;28;20225;-78
2023/05/21 10:34:53;;;;;;;10.23;5.68;;;23.30;99.90;;;;;;5048271;28;20220;-78
2023/05/21 10:37:30;;;;;;;10.20;6.13;;;23.40;99.90;;;;;;5048434;28;20325;-79
2023/05/21 10:39:57;;;;;;;9.63;5.90;;;23.40;99.90;;;;;;5032379;28;20583;-79
2023/05/21 10:42:28;;;;;;;8.60;6.22;;;23.40;99.90;;;;;;5034684;28;20213;-80
2023/05/21 10:45:20;;;;;;;8.32;5.93;;;23.60;99.90;;;;;;5043315;28;20276;-80
2023/05/21 10:47:55;;;;;;;8.85;5.97;;;23.50;99.90;;;;;;5029338;28;20205;-79
2023/05/21 10:50:44;;;;;;;9.07;6.20;;;23.60;99.90;;;;;;5046849;28;20248;-79
2023/05/21 10:53:32;;;;;;;11.07;6.10;;;23.60;99.90;;;;;;5040101;28;20960;-77
2023/05/21 10:56:27;;;;;;;9.40;6.43;;;23.50;99.90;;;;;;5028959;28;20255;-77
2023/05/21 10:59:29;;;;;;;8.88;6.00;;;23.60;99.90;;;;;;5026335;28;20212;-80
2023/05/21 11:02:18;;;;;;;10.73;6.03;;;23.60;99.90;;;;;;5045167;28;20320;-81
2023/05/21 11:04:47;;;;;;;9.93;6.55;;;23.50;99.90;;;;;;5042713;28;20608;-77
2023/05/21 11:07:23;;;;;;;12.65;7.30;;;23.50;99.90;;;;;;5029858;28;20205;-77
2023/05/21 11:09:50;;;;;;;16.73;7.80;;;23.40;99.90;;;;;;5028612;28;20209;-78
2023/05/21 11:12:18;;;;;;;9.95;6.80;;;23.40;99.90;;;;;;5046079;28;20201;-82
2023/05/21 11:14:57;;;;;;;10.27;6.90;;;23.50;99.90;;;;;;5050109;28;20228;-77
2023/05/21 11:17:43;;;;;;;12.38;7.47;;;23.80;99.90;;;;;;5045874;28;20288;-78
2023/05/21 11:20:12;;;;;;;11.50;6.80;;;23.90;99.90;;;;;;5043165;28;20209;-75
2023/05/21 11:22:40;;;;;;;12.85;6.70;;;23.90;99.90;;;;;;5037009;28;20315;-79
2023/05/21 11:25:07;;;;;;;10.30;7.40;;;24.00;99.90;;;;;;5047166;28;20256;-78
2023/05/21 11:27:46;;;;;;;13.02;7.32;;;23.90;99.90;;;;;;5043806;28;20198;-77
2023/05/21 11:30:16;;;;;;;11.80;7.63;;;23.80;99.90;;;;;;5040838;28;20225;-77
2023/05/21 11:33:09;;;;;;;11.38;7.75;;;23.70;99.90;;;;;;5065725;28;20277;-77
2023/05/21 11:35:49;;;;;;;11.38;6.85;;;23.70;99.90;;;;;;5067584;28;20192;-80
2023/05/21 11:38:16;;;;;;;11.35;7.28;;;23.90;99.90;;;;;;5068860;28;20201;-77
2023/05/21 11:40:53;;;;;;;10.57;7.60;;;24.10;99.90;;;;;;5053750;28;20200;-76
2023/05/21 11:43:22;;;;;;;11.75;8.05;;;24.30;99.90;;;;;;5068247;28;20359;-75
2023/05/21 11:45:51;;;;;;;12.32;7.43;;;24.40;99.90;;;;;;5065972;28;20244;-75
2023/05/21 11:48:24;;;;;;;10.27;7.38;;;24.50;99.90;;;;;;5051216;28;20212;-79
2023/05/21 11:50:53;;;;;;;10.10;7.35;;;24.60;99.90;;;;;;5051216;28;20540;-79
2023/05/21 11:53:24;;;;;;;11.65;7.97;;;24.50;99.90;;;;;;5061478;28;20227;-78
2023/05/21 11:55:56;;;;;;;13.98;7.65;;;24.20;99.90;;;;;;5060332;28;20295;-78
2023/05/21 11:58:30;;;;;;;11.85;7.60;;;24.20;99.90;;;;;;5052267;28;20277;-80
2023/05/21 12:01:00;;;;;;;13.85;7.82;;;24.00;99.90;;;;;;5070301;28;20220;-77
2023/05/21 12:03:29;;;;;;;11.68;7.32;;;23.70;99.90;;;;;;5066606;28;20200;-79
2023/05/21 12:06:04;;;;;;;12.93;7.47;;;23.60;99.90;;;;;;5051184;28;20655;-81
2023/05/21 12:08:32;;;;;;;12.77;8.05;;;23.70;99.90;;;;;;5052808;28;20214;-79
2023/05/21 12:11:00;;;;;;;14.02;7.35;;;24.10;99.90;;;;;;5063026;28;20262;-78
2023/05/21 12:13:31;;;;;;;14.73;8.73;;;24.40;99.90;;;;;;5067711;28;20291;-78
2023/05/21 12:16:01;;;;;;;11.20;7.70;;;24.50;99.90;;;;;;5041008;28;20217;-78
2023/05/21 12:18:31;;;;;;;11.27;8.07;;;24.70;99.90;;;;;;5068219;28;20653;-76
2023/05/21 12:20:59;;;;;;;11.73;8.38;;;24.70;99.90;;;;;;5060830;28;20207;-75
2023/05/21 12:23:26;;;;;;;10.95;7.53;;;24.70;99.90;;;;;;5066794;28;20208;-75
2023/05/21 12:25:53;;;;;;;13.70;8.80;;;24.80;99.90;;;;;;5066043;28;20236;-75
2023/05/21 12:28:21;;;;;;;14.63;8.65;;;24.50;99.90;;;;;;5068678;28;20283;-74
2023/05/21 12:30:48;;;;;;;11.23;7.78;;;24.60;99.90;;;;;;5053044;28;20236;-75
2023/05/21 12:33:16;;;;;;;12.52;8.65;;;24.90;99.90;;;;;;5065727;28;20208;-76
2023/05/21 12:35:48;;;;;;;14.10;8.68;;;25.20;99.90;;;;;;5062197;28;20508;-75
2023/05/21 12:38:15;;;;;;;11.40;8.13;;;25.40;99.90;;;;;;5077168;28;20209;-76
2023/05/21 12:40:45;;;;;;;13.38;9.38;;;25.60;99.90;;;;;;5065705;28;20676;-76
2023/05/21 12:43:12;;;;;;;11.90;8.73;;;25.60;99.90;;;;;;5067782;28;20280;-77
2023/05/21 12:45:39;;;;;;;13.05;9.32;;;25.60;99.90;;;;;;5068197;28;20244;-75
2023/05/21 12:48:07;;;;;;;16.25;9.02;;;25.60;99.90;;;;;;5068842;28;20254;-75
2023/05/21 12:50:37;;;;;;;12.10;8.55;;;25.60;99.90;;;;;;5070197;28;20236;-76
2023/05/21 12:53:09;;;;;;;13.90;8.88;;;25.70;99.90;;;;;;5062852;28;20295;-75